Time;durP1;ratioP1;P1;durP2;ratioP2;P2;SDS_P1;SDS_P2;PMS_P1;PMS_P2;Temp;Humidity;BMP_temperature;BMP_pressure;BME280_temperature;BME280_humidity;BME280_pressure;Samples;Min_cycle;Max_cycle;Signal;HPM_P1;HPM_P2
2023/01/06 00:01:02;;;;;;;0.30;0.20;;;28.10;49.80;;;;;;4992785;28;20193;-48
2023/01/06 00:03:33;;;;;;;2.47;0.20;;;28.20;49.60;;;;;;5010973;28;20204;-48
2023/01/06 00:06:06;;;;;;;0.28;0.10;;;28.40;48.70;;;;;;4991896;28;20201;-49
2023/01/06 00:08:37;;;;;;;0.70;0.22;;;28.40;48.30;;;;;;4993272;28;20297;-45
2023/01/06 00:11:12;;;;;;;0.10;0.10;;;28.50;48.80;;;;;;4992770;28;20662;-45
2023/01/06 00:13:43;;;;;;;0.10;0.10;;;28.60;47.90;;;;;;4993788;28;20208;-46
2023/01/06 00:16:17;;;;;;;0.35;0.20;;;28.60;47.90;;;;;;5012523;28;20200;-49
2023/01/06 00:18:48;;;;;;;2.30;0.28;;;28.70;47.80;;;;;;5012324;28;20208;-50
2023/01/06 00:21:19;;;;;;;1.65;0.20;;;28.80;48.10;;;;;;5012855;28;20193;-54
2023/01/06 00:23:49;;;;;;;2.30;0.20;;;28.80;47.90;;;;;;5012223;28;20534;-52
2023/01/06 00:26:20;;;;;;;0.28;0.10;;;28.90;47.60;;;;;;5006051;28;20213;-48
2023/01/06 00:28:53;;;;;;;0.20;0.15;;;29.00;47.70;;;;;;4993000;28;20201;-55
2023/01/06 00:31:26;;;;;;;2.28;0.15;;;29.10;47.40;;;;;;4992927;28;20201;-50
2023/01/06 00:33:58;;;;;;;1.27;0.30;;;29.20;47.30;;;;;;4994268;28;20236;-48
2023/01/06 00:36:29;;;;;;;0.43;0.30;;;29.30;47.10;;;;;;5011594;28;20193;-56
2023/01/06 00:38:59;;;;;;;0.10;0.10;;;29.40;47.50;;;;;;5009478;28;20203;-50
2023/01/06 00:44:16;;;;;;;0.45;0.25;;;29.60;47.10;;;;;;4996657;28;20219;-47
2023/01/06 00:46:49;;;;;;;0.75;0.20;;;29.70;47.60;;;;;;5011608;28;20208;-51
2023/01/06 00:49:20;;;;;;;0.75;0.22;;;29.80;46.20;;;;;;5011164;28;20220;-59
2023/01/06 00:51:53;;;;;;;3.33;0.63;;;29.90;45.30;;;;;;5011092;28;20556;-53
2023/01/06 00:54:24;;;;;;;0.20;0.20;;;29.90;45.60;;;;;;5011734;28;21006;-52
2023/01/06 00:56:55;;;;;;;0.20;0.10;;;29.90;45.80;;;;;;5011903;28;20197;-56
2023/01/06 00:59:28;;;;;;;5.40;0.60;;;30.00;44.80;;;;;;5013818;28;20189;-49
2023/01/06 01:02:00;;;;;;;0.88;0.30;;;30.00;44.20;;;;;;5011321;28;20208;-52
2023/01/06 01:04:31;;;;;;;2.92;0.38;;;30.00;43.80;;;;;;5005118;28;20217;-49
2023/01/06 01:07:02;;;;;;;1.85;0.38;;;30.10;43.20;;;;;;4991923;28;20693;-51
2023/01/06 01:09:33;;;;;;;1.48;0.35;;;30.10;43.60;;;;;;4992176;28;20225;-51
2023/01/06 01:12:13;;;;;;;19.70;2.30;;;30.20;43.40;;;;;;4991347;28;20665;-47
2023/01/06 01:14:47;;;;;;;187.48;27.05;;;30.20;44.10;;;;;;4999403;28;20221;-49
2023/01/06 01:17:23;;;;;;;88.03;7.43;;;30.20;44.00;;;;;;5010818;28;20204;-51
2023/01/06 01:19:55;;;;;;;0.82;0.10;;;30.20;44.20;;;;;;5010695;28;20542;-46
2023/01/06 01:22:27;;;;;;;1.85;0.10;;;30.30;42.60;;;;;;5011594;28;20283;-46
2023/01/06 01:24:58;;;;;;;1.08;0.47;;;30.40;42.50;;;;;;5012862;28;20701;-51
2023/01/06 01:27:28;;;;;;;93.20;13.80;;;30.40;41.80;;;;;;4997583;28;20200;-47
2023/01/06 01:29:59;;;;;;;126.72;21.38;;;30.50;42.40;;;;;;5000759;28;20224;-47
2023/01/06 01:32:32;;;;;;;72.50;10.13;;;30.50;43.50;;;;;;5010860;28;20227;-49
2023/01/06 01:35:02;;;;;;;48.67;6.05;;;30.50;43.80;;;;;;5001755;28;20221;-47
2023/01/06 01:37:33;;;;;;;28.80;5.60;;;30.50;44.00;;;;;;4991883;28;20201;-52
2023/01/06 01:40:04;;;;;;;1.40;0.30;;;30.60;44.40;;;;;;5000871;28;20196;-45
2023/01/06 01:42:35;;;;;;;2.90;0.55;;;30.60;44.60;;;;;;5011364;28;20688;-48
2023/01/06 01:45:07;;;;;;;1.42;0.30;;;30.70;44.00;;;;;;5001776;28;20221;-44
2023/01/06 01:47:51;;;;;;;5.05;0.38;;;30.80;43.60;;;;;;4990870;28;20212;-47
2023/01/06 01:50:32;;;;;;;2.72;0.50;;;30.80;43.10;;;;;;4990929;28;20227;-47
2023/01/06 01:53:06;;;;;;;1.65;0.45;;;30.90;42.60;;;;;;4990963;28;20670;-57
2023/01/06 01:55:38;;;;;;;0.28;0.28;;;30.90;42.80;;;;;;4991661;28;20224;-49
2023/01/06 01:58:23;;;;;;;2.50;0.43;;;30.90;42.90;;;;;;4990316;28;20228;-46
2023/01/06 02:00:54;;;;;;;1.60;0.30;;;30.90;43.00;;;;;;5005942;28;20188;-49
2023/01/06 02:03:27;;;;;;;1.45;0.30;;;30.90;43.00;;;;;;5010968;28;20204;-54
2023/01/06 02:06:06;;;;;;;0.10;0.10;;;30.90;43.10;;;;;;4996172;28;20217;-53
2023/01/06 02:08:41;;;;;;;1.45;0.20;;;30.90;43.50;;;;;;4990477;28;20200;-56
2023/01/06 02:11:12;;;;;;;0.85;0.20;;;30.90;43.30;;;;;;4990656;28;20228;-51
2023/01/06 02:13:46;;;;;;;0.20;0.20;;;30.90;43.50;;;;;;4990749;28;20201;-57
2023/01/06 02:16:25;;;;;;;0.20;0.20;;;30.90;43.20;;;;;;4991027;28;20186;-50
2023/01/06 02:19:06;;;;;;;3.40;0.43;;;30.90;44.10;;;;;;4990848;28;20208;-55
2023/01/06 02:21:48;;;;;;;1.67;0.73;;;30.90;44.50;;;;;;5010616;28;20228;-53
2023/01/06 02:24:50;;;;;;;0.90;0.30;;;30.90;44.90;;;;;;5009793;28;20217;-53
2023/01/06 02:27:53;;;;;;;2.28;0.28;;;30.90;44.90;;;;;;4995376;28;20219;-58
2023/01/06 02:30:55;;;;;;;0.47;0.30;;;31.00;44.90;;;;;;4988646;28;20231;-58
2023/01/06 02:33:32;;;;;;;0.93;0.30;;;31.00;45.10;;;;;;4990993;28;20197;-58
2023/01/06 02:36:22;;;;;;;0.32;0.22;;;31.00;45.40;;;;;;5004976;28;20205;-58
2023/01/06 02:39:03;;;;;;;0.25;0.20;;;31.00;45.70;;;;;;5007381;28;20671;-61
2023/01/06 02:41:42;;;;;;;414.38;39.80;;;31.10;45.70;;;;;;5007973;28;20200;-50
2023/01/06 02:44:21;;;;;;;27.83;3.70;;;31.10;45.00;;;;;;5010264;28;20589;-55
2023/01/06 02:47:11;;;;;;;21.98;3.80;;;31.10;44.00;;;;;;5009652;28;20196;-56
2023/01/06 02:49:51;;;;;;;28.80;4.43;;;31.20;44.60;;;;;;5010530;28;20201;-56
2023/01/06 02:52:32;;;;;;;29.67;3.97;;;31.20;44.60;;;;;;5010272;28;20211;-56
2023/01/06 02:55:08;;;;;;;23.58;3.88;;;31.20;44.60;;;;;;5009598;28;20703;-56
2023/01/06 02:57:43;;;;;;;17.95;3.35;;;31.20;44.60;;;;;;5010026;28;20257;-55
2023/01/06 03:00:19;;;;;;;17.83;3.00;;;31.20;44.60;;;;;;5010256;28;20192;-57
2023/01/06 03:02:54;;;;;;;20.08;3.20;;;31.30;44.60;;;;;;5010547;28;20582;-56
2023/01/06 03:05:29;;;;;;;15.90;2.45;;;31.30;44.60;;;;;;5002443;28;20216;-57
2023/01/06 03:08:02;;;;;;;19.50;2.72;;;31.40;44.60;;;;;;4991020;28;20211;-56
2023/01/06 03:10:33;;;;;;;14.48;2.30;;;31.40;44.60;;;;;;4998543;28;20223;-56
2023/01/06 03:13:08;;;;;;;12.38;2.63;;;31.40;44.70;;;;;;5010322;28;20566;-56
2023/01/06 03:15:39;;;;;;;9.48;2.28;;;31.40;44.70;;;;;;5009779;28;20220;-56
2023/01/06 03:18:10;;;;;;;13.52;2.03;;;31.50;44.90;;;;;;5010353;28;20205;-56
2023/01/06 03:20:42;;;;;;;8.40;2.08;;;31.50;45.00;;;;;;5009719;28;20267;-56
2023/01/06 03:23:14;;;;;;;10.52;2.20;;;31.60;45.00;;;;;;5010339;28;20192;-56
2023/01/06 03:25:45;;;;;;;10.30;2.08;;;31.50;45.10;;;;;;5005655;28;20221;-56
2023/01/06 03:28:15;;;;;;;10.07;1.90;;;31.60;45.10;;;;;;5009630;28;20424;-56
2023/01/06 03:30:50;;;;;;;6.32;1.65;;;31.60;45.00;;;;;;5009377;28;20223;-55
2023/01/06 03:33:26;;;;;;;8.05;1.83;;;31.60;45.30;;;;;;5009408;28;20215;-56
2023/01/06 03:36:09;;;;;;;9.75;1.70;;;31.60;45.30;;;;;;5006722;28;20712;-55
2023/01/06 03:38:50;;;;;;;6.60;1.60;;;31.60;45.10;;;;;;4990509;28;20205;-56
2023/01/06 03:43:10;;;;;;;4.05;1.40;;;31.70;45.10;;;;;;5003682;28;20212;-57
2023/01/06 03:44:26;;;;;;;6.18;1.10;;;31.70;44.80;;;;;;5013351;28;20706;-56
2023/01/06 03:47:04;;;;;;;7.07;1.55;;;31.70;44.80;;;;;;5013883;28;20716;-57
2023/01/06 03:49:40;;;;;;;4.68;1.20;;;31.70;44.60;;;;;;5013079;28;20280;-57
2023/01/06 03:52:21;;;;;;;4.63;1.50;;;31.70;44.60;;;;;;5012155;28;20239;-57
2023/01/06 03:54:57;;;;;;;4.00;1.20;;;31.80;44.60;;;;;;5012719;28;20227;-56
2023/01/06 03:57:30;;;;;;;6.18;1.25;;;31.80;44.60;;;;;;4993719;28;20212;-56
2023/01/06 04:00:04;;;;;;;5.93;1.20;;;31.80;44.50;;;;;;4993553;28;20197;-55
2023/01/06 04:02:37;;;;;;;6.30;1.10;;;31.80;44.60;;;;;;4993688;28;20204;-56
2023/01/06 04:05:12;;;;;;;2.90;0.82;;;31.90;44.80;;;;;;4994395;28;20225;-55
2023/01/06 04:07:48;;;;;;;5.15;1.52;;;31.90;44.70;;;;;;5012395;28;20203;-57
2023/01/06 04:10:20;;;;;;;6.90;1.42;;;31.90;44.80;;;;;;5012327;28;20235;-56
2023/01/06 04:12:49;;;;;;;2.40;1.00;;;31.90;44.80;;;;;;5012230;28;20197;-55
2023/01/06 04:15:21;;;;;;;4.03;0.93;;;31.90;44.90;;;;;;5013056;28;20696;-55
2023/01/06 04:17:52;;;;;;;3.97;1.00;;;32.00;45.10;;;;;;5012781;28;20212;-55
2023/01/06 04:20:23;;;;;;;2.83;1.10;;;31.90;45.00;;;;;;5012765;28;20197;-55
2023/01/06 04:22:57;;;;;;;2.33;0.90;;;32.00;45.10;;;;;;5012364;28;20204;-55
2023/01/06 04:25:28;;;;;;;3.08;0.77;;;31.90;45.10;;;;;;5012277;28;20212;-57
2023/01/06 04:27:58;;;;;;;4.25;0.95;;;32.00;45.00;;;;;;4992833;28;20200;-56
2023/01/06 04:30:29;;;;;;;3.42;0.70;;;32.00;44.90;;;;;;4993772;28;20224;-57
2023/01/06 04:33:00;;;;;;;2.45;0.88;;;32.00;44.80;;;;;;4992972;28;20205;-54
2023/01/06 04:35:30;;;;;;;4.00;0.98;;;32.00;44.80;;;;;;5005188;28;20213;-57
2023/01/06 04:38:04;;;;;;;3.20;1.00;;;32.00;44.70;;;;;;4992883;28;20197;-55
2023/01/06 04:40:34;;;;;;;2.55;1.00;;;32.00;44.70;;;;;;4995964;28;20541;-56
2023/01/06 04:43:05;;;;;;;5.00;0.77;;;32.00;44.70;;;;;;5012634;28;20203;-55
2023/01/06 04:45:36;;;;;;;1.27;0.63;;;32.00;44.70;;;;;;5005676;28;20213;-56
2023/01/06 04:48:07;;;;;;;1.75;0.70;;;32.00;44.70;;;;;;4991863;28;20209;-57
2023/01/06 04:50:38;;;;;;;3.72;0.73;;;32.00;44.70;;;;;;4992172;28;20221;-55
2023/01/06 04:53:12;;;;;;;2.97;0.93;;;32.00;44.80;;;;;;4992834;28;20547;-57
2023/01/06 04:55:43;;;;;;;3.05;0.85;;;32.00;44.80;;;;;;4991398;28;20962;-57
2023/01/06 04:58:14;;;;;;;4.32;1.00;;;32.00;44.80;;;;;;4992498;28;20223;-56
2023/01/06 05:00:45;;;;;;;2.97;1.00;;;32.00;44.60;;;;;;4991650;28;20196;-56
2023/01/06 05:03:16;;;;;;;1.92;0.90;;;32.00;44.60;;;;;;4992485;28;20205;-56
2023/01/06 05:05:46;;;;;;;2.63;0.90;;;32.00;44.50;;;;;;4996416;28;20718;-56
2023/01/06 05:08:19;;;;;;;1.30;0.70;;;32.00;44.50;;;;;;5011958;28;20559;-56
2023/01/06 05:10:49;;;;;;;2.65;0.93;;;32.00;44.60;;;;;;5012488;28;20228;-55
2023/01/06 05:13:20;;;;;;;2.38;0.80;;;32.00;44.70;;;;;;5012235;28;20683;-56
2023/01/06 05:15:51;;;;;;;2.67;0.90;;;31.90;44.60;;;;;;5012199;28;20223;-56
2023/01/06 05:18:21;;;;;;;2.83;0.80;;;32.00;44.90;;;;;;5012326;28;20203;-55
2023/01/06 05:20:54;;;;;;;3.05;1.00;;;32.00;45.00;;;;;;5012193;28;20204;-58
2023/01/06 05:23:26;;;;;;;2.30;0.82;;;32.00;44.90;;;;;;5012278;28;20197;-58
2023/01/06 05:25:57;;;;;;;4.03;0.95;;;32.00;45.00;;;;;;5012251;28;20221;-55
2023/01/06 05:28:28;;;;;;;1.92;0.80;;;31.90;44.90;;;;;;5025414;22;20259;-43
2023/01/06 05:31:02;;;;;;;1.85;0.80;;;32.00;44.90;;;;;;5005364;28;20227;-47
2023/01/06 05:33:34;;;;;;;1.90;1.08;;;31.90;45.00;;;;;;5011942;28;20199;-46
2023/01/06 05:36:06;;;;;;;3.10;0.95;;;31.90;44.90;;;;;;4992211;28;20650;-43
2023/01/06 05:38:39;;;;;;;3.10;1.20;;;31.90;44.80;;;;;;4992385;28;20193;-45
2023/01/06 05:41:10;;;;;;;2.25;0.80;;;31.90;44.80;;;;;;4992213;28;20197;-43
2023/01/06 05:43:41;;;;;;;2.90;1.10;;;31.90;44.80;;;;;;4991847;28;20208;-42
2023/01/06 05:46:12;;;;;;;3.22;1.00;;;31.90;44.70;;;;;;4992274;28;20669;-42
2023/01/06 05:48:43;;;;;;;2.88;1.02;;;31.90;44.70;;;;;;4992246;28;20662;-42
2023/01/06 05:51:15;;;;;;;2.58;0.93;;;31.80;44.60;;;;;;4992096;28;20220;-42
2023/01/06 05:53:49;;;;;;;2.42;0.88;;;31.80;44.60;;;;;;4991850;28;20208;-42
2023/01/06 05:56:21;;;;;;;3.72;0.98;;;31.80;44.70;;;;;;4991444;28;20200;-42
2023/01/06 05:58:53;;;;;;;1.65;0.90;;;31.80;44.70;;;;;;4991873;28;20200;-42
2023/01/06 06:01:25;;;;;;;2.15;0.90;;;31.80;44.80;;;;;;4991599;28;20235;-43
2023/01/06 06:03:57;;;;;;;2.78;0.80;;;31.80;44.80;;;;;;4991561;28;20197;-42
2023/01/06 06:06:29;;;;;;;2.00;0.82;;;31.70;44.80;;;;;;4991480;28;20197;-50
2023/01/06 06:09:02;;;;;;;1.50;0.70;;;31.80;44.90;;;;;;4990993;28;20200;-44
2023/01/06 06:11:33;;;;;;;2.67;1.00;;;31.80;44.90;;;;;;4990474;28;20232;-42
2023/01/06 06:14:03;;;;;;;2.22;0.90;;;31.80;44.90;;;;;;4990908;28;20220;-45
2023/01/06 06:16:34;;;;;;;3.17;0.82;;;31.70;44.90;;;;;;4991667;28;20212;-52
2023/01/06 06:19:05;;;;;;;1.73;0.68;;;31.70;44.90;;;;;;4991680;28;20201;-42
2023/01/06 06:21:35;;;;;;;1.73;0.95;;;31.70;45.00;;;;;;4991503;28;20539;-43
2023/01/06 06:24:09;;;;;;;2.20;0.85;;;31.70;45.00;;;;;;4991486;28;20221;-49
2023/01/06 06:26:39;;;;;;;2.65;1.08;;;31.70;44.90;;;;;;4991521;28;20204;-42
2023/01/06 06:29:10;;;;;;;1.48;0.98;;;31.60;44.80;;;;;;4983297;28;20658;-43
2023/01/06 06:31:41;;;;;;;3.97;1.00;;;31.60;44.80;;;;;;4974883;28;20232;-43
2023/01/06 06:34:14;;;;;;;2.47;0.80;;;31.60;44.70;;;;;;4991170;28;20288;-43
2023/01/06 06:36:45;;;;;;;7.43;0.95;;;31.60;44.70;;;;;;4991363;28;20657;-43
2023/01/06 06:39:18;;;;;;;2.97;0.88;;;31.60;44.60;;;;;;4990875;28;20295;-46
2023/01/06 06:41:48;;;;;;;2.50;0.93;;;31.50;44.60;;;;;;4990581;28;20200;-42
2023/01/06 06:44:19;;;;;;;4.10;1.08;;;31.50;44.60;;;;;;4992847;28;20220;-44
2023/01/06 06:46:50;;;;;;;2.60;1.00;;;31.50;44.70;;;;;;4991922;28;20200;-43
2023/01/06 06:49:20;;;;;;;3.85;1.02;;;31.50;44.80;;;;;;4991438;28;20541;-43
2023/01/06 06:51:51;;;;;;;1.45;0.77;;;31.50;44.80;;;;;;4991531;28;20260;-43
2023/01/06 06:54:24;;;;;;;2.35;1.10;;;31.50;44.80;;;;;;4991296;28;20244;-44
2023/01/06 06:56:55;;;;;;;1.45;0.80;;;31.40;44.80;;;;;;4991065;28;20218;-44
2023/01/06 06:59:26;;;;;;;2.05;0.95;;;31.40;44.80;;;;;;4991439;28;20201;-44
2023/01/06 07:01:57;;;;;;;2.85;0.90;;;31.40;44.80;;;;;;4991039;28;20200;-43
2023/01/06 07:04:27;;;;;;;2.45;1.08;;;31.40;45.00;;;;;;4990777;28;20217;-43
2023/01/06 07:06:58;;;;;;;1.13;0.80;;;31.40;44.90;;;;;;4990810;28;20201;-44
2023/01/06 07:09:31;;;;;;;1.88;0.80;;;31.40;44.90;;;;;;4990712;28;20289;-42
2023/01/06 07:12:02;;;;;;;1.77;0.80;;;31.40;44.90;;;;;;4990732;28;20224;-43
2023/01/06 07:14:32;;;;;;;1.27;0.82;;;31.30;44.80;;;;;;4990644;28;20244;-42
2023/01/06 07:17:03;;;;;;;1.08;0.70;;;31.30;44.90;;;;;;4990673;28;20205;-43
2023/01/06 07:19:34;;;;;;;1.95;0.95;;;31.30;44.80;;;;;;4994879;28;20196;-43
2023/01/06 07:22:04;;;;;;;2.75;1.27;;;31.30;44.90;;;;;;4994569;28;20197;-43
2023/01/06 07:24:37;;;;;;;1.55;0.80;;;31.30;44.80;;;;;;4989796;28;20752;-46
2023/01/06 07:27:07;;;;;;;1.98;0.98;;;31.20;44.70;;;;;;4990591;28;20197;-46
2023/01/06 07:29:38;;;;;;;1.10;0.80;;;31.20;44.80;;;;;;4990598;28;20201;-49
2023/01/06 07:32:09;;;;;;;1.85;0.75;;;31.20;44.90;;;;;;4993900;28;20221;-43
2023/01/06 07:34:39;;;;;;;1.50;1.00;;;31.20;44.90;;;;;;4993920;28;20209;-49
2023/01/06 07:37:10;;;;;;;2.63;0.80;;;31.20;44.90;;;;;;4991435;28;20205;-55
2023/01/06 07:39:42;;;;;;;2.33;1.05;;;31.20;45.10;;;;;;4993478;28;20232;-56
2023/01/06 07:42:13;;;;;;;3.45;0.90;;;31.10;45.00;;;;;;4993670;28;20267;-44
2023/01/06 07:44:44;;;;;;;1.15;0.75;;;31.10;45.00;;;;;;5003060;28;20210;-45
2023/01/06 07:47:15;;;;;;;1.92;1.00;;;31.10;45.00;;;;;;4974296;28;20205;-44
2023/01/06 07:49:46;;;;;;;2.17;0.85;;;31.10;45.00;;;;;;4974693;28;20205;-59
2023/01/06 07:52:16;;;;;;;2.30;0.80;;;31.10;45.00;;;;;;4989989;28;20275;-44
2023/01/06 07:54:49;;;;;;;2.92;0.90;;;31.00;45.00;;;;;;4989400;28;20214;-44
2023/01/06 07:57:20;;;;;;;2.67;1.00;;;31.00;45.00;;;;;;4973861;28;20198;-51
2023/01/06 07:59:50;;;;;;;2.50;1.00;;;31.00;45.00;;;;;;4974205;28;20190;-58
2023/01/06 08:02:21;;;;;;;1.90;0.90;;;31.00;45.00;;;;;;4982370;28;20564;-52
2023/01/06 08:04:52;;;;;;;2.40;0.90;;;31.00;45.00;;;;;;4993590;28;20217;-56
2023/01/06 08:07:22;;;;;;;1.27;0.90;;;31.00;45.00;;;;;;4993546;28;20622;-55
2023/01/06 08:09:55;;;;;;;3.47;1.20;;;31.00;44.90;;;;;;4992650;28;20198;-50
2023/01/06 08:12:26;;;;;;;2.10;0.98;;;30.90;44.90;;;;;;4993169;28;20225;-57
2023/01/06 08:14:56;;;;;;;2.55;0.98;;;30.90;44.90;;;;;;4992378;28;20216;-58
2023/01/06 08:17:27;;;;;;;2.28;0.93;;;30.80;44.90;;;;;;4993849;28;20201;-60
2023/01/06 08:19:58;;;;;;;1.73;0.85;;;30.90;44.90;;;;;;4991903;28;20197;-60
2023/01/06 08:22:28;;;;;;;1.58;0.80;;;30.80;44.90;;;;;;4975469;28;20683;-54
2023/01/06 08:25:01;;;;;;;2.70;0.93;;;30.80;44.90;;;;;;4988621;28;20221;-56
2023/01/06 08:27:32;;;;;;;1.77;1.00;;;30.80;44.90;;;;;;4975422;28;21404;-49
2023/01/06 08:30:02;;;;;;;1.73;0.80;;;30.80;44.90;;;;;;4992249;28;20201;-44
2023/01/06 08:32:33;;;;;;;1.45;1.10;;;30.80;44.80;;;;;;5005725;23;20225;-54
2023/01/06 08:35:04;;;;;;;2.20;1.00;;;30.70;44.80;;;;;;4991916;28;20645;-53
2023/01/06 08:37:34;;;;;;;2.47;0.90;;;30.70;44.80;;;;;;4990791;28;20268;-51
2023/01/06 08:40:08;;;;;;;1.73;1.23;;;30.70;44.80;;;;;;4981774;28;20379;-56
2023/01/06 08:42:38;;;;;;;2.45;1.00;;;30.60;44.70;;;;;;4983933;28;20237;-54
2023/01/06 08:45:11;;;;;;;1.73;0.85;;;30.60;44.80;;;;;;4981472;28;20225;-50
2023/01/06 08:47:42;;;;;;;3.03;1.15;;;30.60;44.70;;;;;;4983137;28;20539;-52
2023/01/06 08:50:13;;;;;;;1.67;1.15;;;30.60;44.70;;;;;;4982181;28;20205;-45
2023/01/06 08:52:43;;;;;;;1.88;1.05;;;30.60;44.80;;;;;;4980103;28;20679;-46
2023/01/06 08:55:16;;;;;;;1.63;0.93;;;30.60;44.80;;;;;;4985490;28;20209;-54
2023/01/06 08:57:47;;;;;;;1.80;1.00;;;30.50;44.80;;;;;;4980710;28;20190;-50
2023/01/06 09:00:18;;;;;;;2.13;1.15;;;30.50;44.80;;;;;;4980701;28;20190;-54
2023/01/06 09:02:49;;;;;;;1.42;0.88;;;30.50;45.40;;;;;;4981187;28;20643;-46
2023/01/06 09:05:20;;;;;;;1.27;0.80;;;30.50;44.80;;;;;;4979837;28;20220;-46
2023/01/06 09:07:51;;;;;;;4.13;0.90;;;30.40;44.80;;;;;;4982594;28;20194;-45
2023/01/06 09:10:24;;;;;;;1.73;1.00;;;30.40;44.80;;;;;;4979714;28;20257;-51
2023/01/06 09:12:54;;;;;;;1.45;0.90;;;30.40;44.80;;;;;;4982628;28;20230;-47
2023/01/06 09:15:25;;;;;;;1.63;1.00;;;30.40;44.90;;;;;;4980499;28;20210;-49
2023/01/06 09:17:56;;;;;;;1.70;1.00;;;30.30;44.90;;;;;;4983162;28;20197;-48
2023/01/06 09:20:27;;;;;;;2.20;0.88;;;30.30;44.90;;;;;;4982064;28;20194;-50
2023/01/06 09:22:58;;;;;;;1.63;0.80;;;30.30;44.90;;;;;;4983487;28;20190;-48
2023/01/06 09:25:30;;;;;;;2.00;1.05;;;30.30;44.90;;;;;;4981109;28;20614;-47
2023/01/06 09:28:01;;;;;;;2.65;0.98;;;30.20;44.90;;;;;;4986411;28;20673;-56
2023/01/06 09:30:32;;;;;;;1.13;0.90;;;30.20;44.90;;;;;;4981668;28;20288;-49
2023/01/06 09:33:02;;;;;;;1.83;0.70;;;30.20;45.00;;;;;;4982769;28;20600;-45
2023/01/06 09:35:33;;;;;;;1.95;1.00;;;30.20;45.00;;;;;;4981287;28;20206;-51
2023/01/06 09:38:04;;;;;;;2.13;1.15;;;30.10;45.00;;;;;;4980158;28;20202;-50
2023/01/06 10:40:21;;;;;;;2.38;1.20;;;29.50;45.40;;;;;;5993939;23;20258;-45
2023/01/06 10:42:59;;;;;;;1.58;0.95;;;29.50;45.50;;;;;;5031233;28;20188;-46
2023/01/06 10:45:33;;;;;;;1.42;0.90;;;29.50;45.50;;;;;;5041836;28;20756;-41
2023/01/06 10:48:05;;;;;;;1.40;1.00;;;29.40;45.50;;;;;;5041515;28;20195;-42
2023/01/06 10:50:37;;;;;;;1.13;0.90;;;29.40;45.50;;;;;;5029483;28;20192;-41
2023/01/06 10:53:08;;;;;;;3.47;1.15;;;29.40;45.60;;;;;;5031436;28;20224;-41
2023/01/06 10:55:45;;;;;;;1.58;0.90;;;29.30;45.60;;;;;;5034250;28;20227;-43
2023/01/06 10:58:25;;;;;;;1.83;1.10;;;29.30;45.60;;;;;;5020340;28;20647;-47
2023/01/06 11:01:01;;;;;;;2.25;1.10;;;29.30;45.60;;;;;;5034155;28;20192;-42
2023/01/06 11:03:32;;;;;;;1.40;0.80;;;29.20;45.60;;;;;;5033633;28;20544;-45
2023/01/06 11:06:09;;;;;;;1.88;1.10;;;29.20;45.70;;;;;;5033646;28;20212;-50
2023/01/06 11:08:41;;;;;;;1.55;1.17;;;29.20;45.70;;;;;;5033709;28;20192;-43
2023/01/06 11:11:21;;;;;;;1.17;0.98;;;29.20;45.70;;;;;;5033848;28;20239;-42
2023/01/06 11:13:53;;;;;;;1.45;1.05;;;29.10;45.70;;;;;;5033887;28;20715;-50
2023/01/06 11:16:27;;;;;;;1.73;1.10;;;29.10;45.70;;;;;;5033324;28;20200;-50
2023/01/06 11:18:59;;;;;;;1.52;1.02;;;29.10;45.80;;;;;;5034152;28;20197;-52
2023/01/06 11:21:41;;;;;;;2.72;1.20;;;29.10;45.80;;;;;;5032529;28;20188;-51
2023/01/06 11:24:19;;;;;;;2.08;1.10;;;29.00;45.70;;;;;;5033966;28;20270;-49
2023/01/06 11:26:56;;;;;;;2.45;1.15;;;29.00;45.80;;;;;;5033448;28;21309;-42
2023/01/06 11:29:33;;;;;;;0.85;0.85;;;29.00;45.80;;;;;;5032956;28;20199;-45
2023/01/06 11:32:15;;;;;;;1.98;0.90;;;29.00;45.90;;;;;;5033294;28;20203;-46
2023/01/06 11:34:54;;;;;;;1.20;1.05;;;29.00;45.90;;;;;;5030159;28;20244;-46
2023/01/06 11:37:34;;;;;;;1.38;1.20;;;28.90;45.80;;;;;;5033514;28;20215;-50
2023/01/06 11:40:16;;;;;;;1.40;1.27;;;28.90;45.90;;;;;;5033510;28;20196;-47
2023/01/06 11:42:51;;;;;;;1.25;0.90;;;28.90;46.00;;;;;;5033433;28;20286;-44
2023/01/06 11:45:36;;;;;;;2.17;1.30;;;28.80;45.90;;;;;;5012978;28;20216;-41
2023/01/06 11:48:13;;;;;;;1.92;1.13;;;28.80;45.90;;;;;;5013991;28;20200;-41
2023/01/06 11:50:52;;;;;;;1.92;1.27;;;28.80;46.00;;;;;;5033090;28;20701;-41
2023/01/06 11:53:23;;;;;;;1.48;1.20;;;28.70;46.00;;;;;;5033346;28;20223;-44
2023/01/06 11:56:04;;;;;;;1.45;1.15;;;28.70;46.00;;;;;;5033068;28;20224;-46
2023/01/06 11:58:52;;;;;;;1.20;1.10;;;28.70;46.10;;;;;;5032163;28;20654;-50
2023/01/06 12:01:31;;;;;;;1.55;1.10;;;28.70;46.10;;;;;;5033074;28;20204;-52
2023/01/06 12:04:12;;;;;;;1.58;1.00;;;28.70;46.10;;;;;;5032734;28;20212;-56
2023/01/06 12:06:44;;;;;;;2.25;1.05;;;28.60;46.00;;;;;;5033263;28;20192;-48
2023/01/06 12:09:21;;;;;;;2.20;1.20;;;28.60;46.10;;;;;;5032545;28;20199;-51
2023/01/06 12:11:54;;;;;;;1.60;1.10;;;28.60;46.10;;;;;;5032564;28;20594;-53
2023/01/06 12:14:29;;;;;;;1.23;1.13;;;28.50;46.10;;;;;;5030458;28;20278;-49
2023/01/06 12:17:07;;;;;;;2.25;1.20;;;28.50;46.10;;;;;;5032494;28;20202;-46
2023/01/06 12:19:45;;;;;;;1.23;1.13;;;28.50;46.10;;;;;;5032489;28;20192;-41
2023/01/06 12:22:24;;;;;;;1.80;1.20;;;28.50;46.20;;;;;;5032292;28;20192;-46
2023/01/06 12:24:57;;;;;;;1.23;1.00;;;28.50;46.20;;;;;;5032707;28;20687;-51
2023/01/06 12:27:37;;;;;;;1.58;0.90;;;28.40;46.20;;;;;;5032135;28;20235;-53
2023/01/06 12:30:17;;;;;;;1.23;1.13;;;28.40;46.30;;;;;;5032863;28;20188;-60
2023/01/06 12:32:51;;;;;;;1.48;1.00;;;28.40;46.30;;;;;;5037103;28;20215;-54
2023/01/06 12:35:26;;;;;;;1.80;1.10;;;28.30;46.20;;;;;;5034899;28;20219;-55
2023/01/06 12:37:59;;;;;;;2.00;1.20;;;28.30;46.20;;;;;;5051539;28;20948;-48
2023/01/06 12:40:36;;;;;;;1.30;1.20;;;28.30;46.30;;;;;;5047858;23;20231;-49
2023/01/06 12:43:17;;;;;;;1.90;1.10;;;28.30;46.30;;;;;;5052156;28;20206;-47
2023/01/06 12:45:56;;;;;;;1.65;1.00;;;28.20;46.30;;;;;;5049348;28;20223;-54
2023/01/06 12:48:34;;;;;;;2.65;1.10;;;28.20;46.30;;;;;;5053485;28;20199;-47
2023/01/06 12:51:10;;;;;;;1.10;0.90;;;28.20;46.30;;;;;;5071508;28;20199;-46
2023/01/06 12:53:44;;;;;;;1.10;1.00;;;28.20;46.40;;;;;;5071347;28;20594;-50
2023/01/06 12:56:42;;;;;;;1.27;0.93;;;28.10;46.30;;;;;;5072037;28;20195;-50
2023/01/06 12:59:24;;;;;;;1.45;1.20;;;28.10;46.40;;;;;;5071066;28;20195;-53
2023/01/06 13:02:02;;;;;;;1.10;1.00;;;28.10;46.40;;;;;;5071496;28;20198;-50
2023/01/06 13:05:11;;;;;;;1.33;0.90;;;28.10;46.50;;;;;;5071714;28;20221;-50
2023/01/06 13:07:48;;;;;;;1.38;1.00;;;28.00;46.40;;;;;;5066899;28;20737;-51
2023/01/06 13:10:28;;;;;;;0.90;0.90;;;28.00;46.40;;;;;;5071819;28;20848;-50
2023/01/06 13:13:39;;;;;;;1.17;1.00;;;28.00;46.50;;;;;;5070411;28;20218;-54
2023/01/06 13:16:20;;;;;;;1.15;1.05;;;27.90;46.60;;;;;;5043179;28;20211;-51
2023/01/06 13:19:03;;;;;;;1.30;1.20;;;27.90;46.50;;;;;;5053655;28;20717;-53
2023/01/06 13:21:34;;;;;;;1.25;1.00;;;27.90;46.50;;;;;;5071635;28;20655;-53
2023/01/06 13:24:38;;;;;;;0.88;0.88;;;27.90;46.60;;;;;;5070793;28;20214;-48
2023/01/06 13:27:23;;;;;;;1.80;1.20;;;27.90;46.60;;;;;;5053747;28;20194;-48
2023/01/06 13:30:06;;;;;;;0.90;0.90;;;27.80;46.60;;;;;;5063925;28;20194;-50
2023/01/06 13:32:48;;;;;;;1.40;1.20;;;27.80;46.60;;;;;;5062588;28;20199;-47
2023/01/06 13:35:56;;;;;;;2.17;1.00;;;27.80;46.60;;;;;;5060180;28;20246;-47
2023/01/06 13:38:56;;;;;;;1.15;1.05;;;27.80;46.70;;;;;;5057871;28;20195;-47
2023/01/06 13:41:32;;;;;;;0.82;0.82;;;27.70;46.60;;;;;;5072343;22;20223;-43
2023/01/06 13:44:05;;;;;;;0.90;0.90;;;27.70;46.70;;;;;;5051035;28;20218;-45
2023/01/06 13:46:37;;;;;;;1.10;1.00;;;27.60;46.70;;;;;;5051813;28;20199;-48
2023/01/06 13:49:09;;;;;;;1.10;1.00;;;27.70;46.80;;;;;;5051875;28;20199;-43
2023/01/06 13:51:43;;;;;;;1.08;0.90;;;27.60;46.80;;;;;;5051555;28;20200;-41
2023/01/06 13:54:45;;;;;;;1.30;1.08;;;27.60;46.80;;;;;;5051251;28;20235;-48
2023/01/06 13:57:36;;;;;;;3.28;1.10;;;27.60;46.80;;;;;;5051220;28;20195;-44
2023/01/06 14:00:23;;;;;;;1.08;0.80;;;27.60;46.90;;;;;;5051406;28;20199;-45
2023/01/06 14:03:18;;;;;;;0.95;0.82;;;27.50;46.80;;;;;;5064777;28;20207;-44
2023/01/06 14:06:00;;;;;;;1.25;1.02;;;27.50;46.90;;;;;;5070761;28;20215;-49
2023/01/06 14:08:38;;;;;;;1.75;1.00;;;27.50;46.90;;;;;;5071079;28;20677;-44
2023/01/06 14:11:31;;;;;;;1.00;0.90;;;27.50;46.90;;;;;;5071439;28;20216;-42
2023/01/06 14:14:05;;;;;;;1.95;0.98;;;27.50;47.00;;;;;;5070971;28;20245;-51
2023/01/06 14:16:44;;;;;;;1.67;0.95;;;27.40;46.90;;;;;;5071195;28;20615;-41
2023/01/06 14:19:19;;;;;;;1.10;1.00;;;27.40;47.00;;;;;;5071031;28;20240;-42
2023/01/06 14:21:52;;;;;;;0.93;0.80;;;27.40;47.00;;;;;;5070884;28;20195;-41
2023/01/06 14:24:30;;;;;;;1.15;0.93;;;27.40;47.10;;;;;;5070749;28;20242;-41
2023/01/06 14:27:02;;;;;;;0.88;0.88;;;27.30;47.10;;;;;;5070343;28;20201;-40